createdAt,value
2022-12-25T00:02:29.875Z,9.32
2022-12-25T00:05:00.590Z,12.00
2022-12-25T00:07:31.212Z,8.45
2022-12-25T00:10:04.808Z,9.45
2022-12-25T00:12:35.220Z,9.25
2022-12-25T00:15:05.907Z,10.80
2022-12-25T00:17:36.510Z,9.77
2022-12-25T00:20:08.059Z,9.75
2022-12-25T00:22:39.151Z,9.60
2022-12-25T00:25:12.836Z,8.57
2022-12-25T00:27:43.328Z,9.07
2022-12-25T00:30:14.783Z,9.23
2022-12-25T00:32:45.479Z,7.07
2022-12-25T00:35:16.120Z,9.93
2022-12-25T00:37:46.641Z,13.95
2022-12-25T00:40:20.014Z,10.35
2022-12-25T00:42:52.362Z,9.30
2022-12-25T00:45:22.971Z,8.73
2022-12-25T00:47:53.519Z,9.82
2022-12-25T00:50:23.980Z,13.18
2022-12-25T00:52:54.404Z,11.13
2022-12-25T00:55:27.654Z,9.15
2022-12-25T00:57:58.181Z,9.32
2022-12-25T01:00:29.267Z,10.35
2022-12-25T01:03:00.120Z,9.52
2022-12-25T01:05:30.742Z,10.20
2022-12-25T01:08:01.252Z,9.90
2022-12-25T01:10:31.947Z,11.45
2022-12-25T01:13:02.453Z,10.00
2022-12-25T01:15:33.093Z,13.82
2022-12-25T01:18:07.728Z,11.02
2022-12-25T01:20:38.886Z,9.85
2022-12-25T01:23:09.765Z,12.18
2022-12-25T01:25:43.237Z,9.48
2022-12-25T01:28:13.934Z,13.75
2022-12-25T01:30:51.635Z,13.45
2022-12-25T01:33:22.440Z,11.00
2022-12-25T01:35:55.944Z,10.52
2022-12-25T01:38:26.556Z,11.43
2022-12-25T01:40:59.845Z,8.63
2022-12-25T01:43:33.255Z,9.10
2022-12-25T01:46:04.858Z,11.68
2022-12-25T01:48:39.936Z,12.25
2022-12-25T01:51:18.548Z,9.82
2022-12-25T01:53:49.022Z,10.70
2022-12-25T01:56:22.603Z,9.40
2022-12-25T01:58:53.142Z,9.50
2022-12-25T02:01:23.882Z,12.90
2022-12-25T02:03:58.096Z,11.18
2022-12-25T02:06:30.979Z,9.70
2022-12-25T02:09:02.293Z,8.55
2022-12-25T02:11:47.995Z,7.50
2022-12-25T02:14:18.626Z,13.85
2022-12-25T02:16:57.475Z,8.15
2022-12-25T02:19:54.704Z,8.00
2022-12-25T02:22:35.020Z,11.75
2022-12-25T02:25:18.404Z,9.75
2022-12-25T02:28:15.987Z,7.97
2022-12-25T02:30:50.747Z,9.50
2022-12-25T02:33:43.201Z,11.32
2022-12-25T02:36:17.059Z,9.13
2022-12-25T02:39:01.828Z,11.52
2022-12-25T02:41:38.632Z,6.28
2022-12-25T02:44:30.839Z,7.78
2022-12-25T02:47:14.056Z,10.43
2022-12-25T02:50:00.029Z,9.70
2022-12-25T02:55:30.590Z,7.95
2022-12-25T02:58:18.383Z,8.73
2022-12-25T03:01:10.788Z,8.10
2022-12-25T03:03:56.471Z,10.85
2022-12-25T03:06:42.141Z,9.57
2022-12-25T03:09:28.020Z,8.93
2022-12-25T03:14:43.352Z,8.88
2022-12-25T03:17:16.723Z,8.30
2022-12-25T03:19:59.609Z,9.05
2022-12-25T03:22:45.669Z,9.35
2022-12-25T03:25:32.028Z,9.85
2022-12-25T03:28:03.224Z,8.05
2022-12-25T03:30:57.169Z,8.13
2022-12-25T03:33:48.674Z,9.75
2022-12-25T03:36:25.816Z,11.40
2022-12-25T03:39:18.449Z,8.00
2022-12-25T03:42:05.347Z,7.57
2022-12-25T03:44:56.593Z,7.07
2022-12-25T03:47:50.523Z,7.07
2022-12-25T03:50:41.119Z,9.05
2022-12-25T03:53:30.145Z,7.88
2022-12-25T03:56:14.535Z,9.88
2022-12-25T03:59:06.604Z,7.65
2022-12-25T04:01:49.478Z,6.72
2022-12-25T04:04:32.265Z,8.13
2022-12-25T04:07:17.608Z,7.88
2022-12-25T04:10:00.349Z,8.52
2022-12-25T04:12:43.451Z,8.15
2022-12-25T04:15:26.702Z,8.50
2022-12-25T04:18:09.655Z,9.50
2022-12-25T04:20:52.432Z,9.50
2022-12-25T04:23:38.011Z,8.23
2022-12-25T04:26:20.908Z,9.32
2022-12-25T04:29:03.799Z,7.85
2022-12-25T04:31:46.584Z,8.88
2022-12-25T04:34:29.559Z,8.70
2022-12-25T04:37:00.048Z,10.15
2022-12-25T04:39:33.300Z,7.65
2022-12-25T04:42:03.884Z,11.20
2022-12-25T04:44:34.476Z,9.23
2022-12-25T04:47:10.998Z,16.35
2022-12-25T04:49:42.357Z,14.93
2022-12-25T04:52:13.632Z,14.15
2022-12-25T04:54:46.861Z,13.13
2022-12-25T04:57:17.373Z,16.33
2022-12-25T04:59:47.977Z,7.80
2022-12-25T05:02:18.675Z,9.65
2022-12-25T05:04:50.339Z,12.05
2022-12-25T05:07:20.822Z,8.98
2022-12-25T05:09:54.045Z,13.10
2022-12-25T05:12:24.561Z,10.95
2022-12-25T05:14:55.404Z,8.52
2022-12-25T05:17:25.870Z,9.85
2022-12-25T05:19:56.436Z,9.27
2022-12-25T05:22:26.935Z,7.85
2022-12-25T05:25:00.231Z,8.90
2022-12-25T05:27:30.660Z,9.02
2022-12-25T05:30:01.180Z,8.85
2022-12-25T05:32:31.715Z,8.13
2022-12-25T05:35:02.680Z,7.57
2022-12-25T05:37:33.424Z,7.03
2022-12-25T05:40:07.939Z,11.65
2022-12-25T05:42:38.695Z,8.52
2022-12-25T05:45:10.808Z,9.68
2022-12-25T05:47:41.266Z,9.75
2022-12-25T05:50:14.099Z,9.55
2022-12-25T05:52:44.685Z,10.65
2022-12-25T05:55:17.999Z,11.80
2022-12-25T05:57:48.716Z,11.18
2022-12-25T06:00:20.036Z,9.30
2022-12-25T06:02:50.642Z,10.35
2022-12-25T06:05:21.257Z,9.95
2022-12-25T06:07:51.882Z,19.80
2022-12-25T06:10:25.282Z,9.27
2022-12-25T06:12:55.826Z,11.05
2022-12-25T06:15:26.624Z,9.88
2022-12-25T06:17:57.046Z,10.35
2022-12-25T06:20:27.631Z,13.45
2022-12-25T06:22:58.080Z,14.18
2022-12-25T06:25:31.387Z,15.40
2022-12-25T06:28:01.916Z,13.63
2022-12-25T06:30:32.462Z,13.13
2022-12-25T06:33:03.117Z,19.20
2022-12-25T06:35:33.691Z,19.85
2022-12-25T06:38:04.165Z,16.55
2022-12-25T06:40:37.521Z,11.95
2022-12-25T06:43:08.030Z,11.88
2022-12-25T06:45:39.100Z,13.88
2022-12-25T06:48:09.777Z,13.38
2022-12-25T06:50:45.198Z,14.55
2022-12-25T06:53:15.794Z,14.38
2022-12-25T06:55:49.082Z,14.80
2022-12-25T06:58:19.598Z,12.07
2022-12-25T07:00:50.272Z,15.32
2022-12-25T07:03:24.949Z,13.02
2022-12-25T07:05:55.518Z,12.10
2022-12-25T07:08:26.070Z,12.45
2022-12-25T07:10:59.252Z,11.80
2022-12-25T07:13:29.760Z,15.98
2022-12-25T07:16:00.642Z,20.08
2022-12-25T07:18:31.645Z,19.13
2022-12-25T07:21:02.519Z,33.75
2022-12-25T07:23:32.993Z,23.08
2022-12-25T07:26:06.423Z,26.52
2022-12-25T07:28:37.146Z,32.83
2022-12-25T07:31:09.575Z,33.95
2022-12-25T07:33:40.442Z,24.58
2022-12-25T07:36:12.838Z,36.92
2022-12-25T07:38:43.973Z,19.15
2022-12-25T07:41:17.160Z,19.60
2022-12-25T07:43:47.676Z,21.70
2022-12-25T07:46:18.362Z,16.42
2022-12-25T07:48:48.897Z,14.93
2022-12-25T07:51:19.615Z,14.98
2022-12-25T07:53:50.198Z,16.67
2022-12-25T07:56:23.876Z,13.82
2022-12-25T07:58:54.317Z,8.73
2022-12-25T08:01:27.117Z,8.20
2022-12-25T08:03:58.917Z,8.80
2022-12-25T08:06:34.368Z,6.65
2022-12-25T08:09:07.497Z,6.93
2022-12-25T08:11:41.672Z,5.50
2022-12-25T08:14:12.578Z,8.73
2022-12-25T08:16:43.434Z,5.95
2022-12-25T08:19:14.757Z,7.18
2022-12-25T08:21:45.371Z,8.35
2022-12-25T08:24:15.781Z,8.18
2022-12-25T08:26:48.906Z,6.82
2022-12-25T08:29:19.483Z,7.95
2022-12-25T08:31:49.952Z,7.65
2022-12-25T08:34:20.384Z,7.25
2022-12-25T08:36:51.206Z,10.68
2022-12-25T08:39:21.664Z,9.65
2022-12-25T08:41:54.889Z,9.75
2022-12-25T08:44:25.456Z,6.00
2022-12-25T08:46:56.476Z,8.85
2022-12-25T08:49:29.210Z,9.45
2022-12-25T08:51:59.897Z,9.30
2022-12-25T08:54:32.700Z,9.85
2022-12-25T08:57:05.972Z,7.10
2022-12-25T08:59:36.535Z,10.13
2022-12-25T09:02:07.932Z,8.95
2022-12-25T09:04:38.557Z,7.15
2022-12-25T09:07:09.215Z,12.27
2022-12-25T09:09:40.143Z,10.88
2022-12-25T09:12:13.492Z,15.55
2022-12-25T09:14:44.900Z,14.52
2022-12-25T09:17:15.686Z,16.60
2022-12-25T09:19:46.158Z,19.05
2022-12-25T09:22:16.697Z,18.02
2022-12-25T09:24:47.215Z,16.73
2022-12-25T09:27:20.502Z,19.23
2022-12-25T09:29:51.058Z,16.13
2022-12-25T09:32:21.768Z,13.75
2022-12-25T09:34:53.972Z,14.63
2022-12-25T09:37:24.812Z,11.90
2022-12-25T09:39:55.279Z,14.75
2022-12-25T09:42:31.513Z,11.93
2022-12-25T09:45:05.929Z,6.10
2022-12-25T09:47:39.996Z,9.75
2022-12-25T09:50:14.863Z,8.90
2022-12-25T09:52:49.481Z,5.82
2022-12-25T09:55:22.922Z,7.73
2022-12-25T09:57:58.987Z,6.72
2022-12-25T10:00:36.752Z,12.40
2022-12-25T10:03:20.366Z,13.45
2022-12-25T10:06:19.394Z,7.78
2022-12-25T10:09:19.538Z,9.07
2022-12-25T10:12:12.044Z,6.78
2022-12-25T10:15:01.595Z,6.32
2022-12-25T10:17:46.890Z,6.90
2022-12-25T10:20:25.172Z,6.55
2022-12-25T10:23:00.420Z,10.68
2022-12-25T10:25:31.026Z,7.45
2022-12-25T10:28:05.926Z,6.13
2022-12-25T10:30:39.610Z,7.72
2022-12-25T10:33:16.649Z,10.73
2022-12-25T10:35:48.433Z,15.93
2022-12-25T10:38:21.461Z,10.30
2022-12-25T10:41:10.045Z,4.88
2022-12-25T10:43:45.828Z,11.25
2022-12-25T10:46:19.806Z,12.07
2022-12-25T10:48:53.206Z,6.43
2022-12-25T10:51:35.192Z,7.47
2022-12-25T10:54:08.989Z,25.67
2022-12-25T10:56:39.717Z,11.40
2022-12-25T10:59:14.070Z,8.60
2022-12-25T11:01:51.006Z,7.32
2022-12-25T11:04:28.776Z,11.40
2022-12-25T11:07:02.296Z,6.03
2022-12-25T11:09:32.811Z,9.27
2022-12-25T11:12:04.011Z,8.20
2022-12-25T11:14:34.723Z,9.70
2022-12-25T11:17:13.487Z,6.07
2022-12-25T11:19:55.404Z,7.93
2022-12-25T11:22:26.307Z,9.73
2022-12-25T11:24:56.948Z,13.30
2022-12-25T11:27:30.781Z,9.90
2022-12-25T11:30:03.517Z,9.52
2022-12-25T11:32:48.779Z,6.97
2022-12-25T11:35:21.633Z,6.35
2022-12-25T11:37:53.838Z,5.75
2022-12-25T11:40:28.389Z,7.50
2022-12-25T11:43:08.199Z,5.63
2022-12-25T11:45:41.754Z,5.55
2022-12-25T11:48:21.069Z,7.10
2022-12-25T11:50:55.026Z,5.60
2022-12-25T11:53:31.842Z,5.45
2022-12-25T11:56:09.439Z,4.75
2022-12-25T11:58:44.982Z,8.02
2022-12-25T12:01:21.858Z,5.85
2022-12-25T12:03:55.706Z,6.80
2022-12-25T12:06:31.617Z,4.85
2022-12-25T12:09:09.146Z,8.07
2022-12-25T12:11:45.964Z,9.48
2022-12-25T12:14:30.343Z,4.18
2022-12-25T12:17:01.066Z,4.80
2022-12-25T12:19:35.710Z,5.55
2022-12-25T12:22:08.113Z,10.13
2022-12-25T12:24:42.196Z,4.18
2022-12-25T12:27:25.609Z,4.30
2022-12-25T12:29:58.705Z,8.57
2022-12-25T12:32:38.939Z,8.55
2022-12-25T12:35:19.382Z,3.80
2022-12-25T12:37:54.503Z,5.53
2022-12-25T12:40:32.677Z,7.07
2022-12-25T12:43:04.107Z,8.48
2022-12-25T12:45:37.814Z,17.80
2022-12-25T12:48:18.316Z,7.90
2022-12-25T12:50:51.737Z,4.78
2022-12-25T12:53:35.131Z,5.55
2022-12-25T12:56:21.056Z,8.23
2022-12-25T12:58:53.340Z,7.10
2022-12-25T13:01:40.956Z,3.92
2022-12-25T13:04:37.530Z,4.40
2022-12-25T13:07:18.740Z,5.85
2022-12-25T13:10:05.363Z,5.88
2022-12-25T13:12:36.088Z,7.13
2022-12-25T13:15:07.389Z,8.63
2022-12-25T13:17:38.571Z,8.80
2022-12-25T13:20:19.941Z,8.95
2022-12-25T13:22:53.394Z,8.10
2022-12-25T13:25:26.883Z,9.15
2022-12-25T13:28:01.025Z,13.52
2022-12-25T13:30:31.842Z,5.05
2022-12-25T13:33:02.432Z,11.35
2022-12-25T13:35:32.997Z,7.50
2022-12-25T13:38:06.271Z,6.22
2022-12-25T13:40:37.603Z,10.55
2022-12-25T13:43:05.811Z,7.40
2022-12-25T13:45:36.871Z,8.27
2022-12-25T13:48:17.505Z,10.63
2022-12-25T13:50:48.918Z,12.75
2022-12-25T13:53:22.158Z,8.52
2022-12-25T13:55:55.100Z,6.85
2022-12-25T13:58:29.619Z,10.35
2022-12-25T14:01:01.364Z,12.35
2022-12-25T14:03:38.655Z,8.13
2022-12-25T14:06:19.393Z,11.75
2022-12-25T14:08:52.975Z,11.35
2022-12-25T14:11:26.409Z,9.60
2022-12-25T14:14:01.551Z,26.15
2022-12-25T14:16:32.566Z,13.02
2022-12-25T14:19:05.145Z,10.82
2022-12-25T14:21:38.638Z,11.00
2022-12-25T14:24:18.361Z,15.82
2022-12-25T14:26:48.960Z,14.90
2022-12-25T14:29:28.039Z,12.35
2022-12-25T14:32:01.231Z,14.27
2022-12-25T14:34:33.681Z,22.90
2022-12-25T14:37:06.463Z,27.50
2022-12-25T14:39:41.474Z,28.08
2022-12-25T14:42:22.634Z,18.88
2022-12-25T14:45:06.616Z,32.85
2022-12-25T14:47:52.657Z,20.45
2022-12-25T14:50:31.213Z,21.00
2022-12-25T14:53:02.727Z,18.27
2022-12-25T14:55:35.973Z,19.42
2022-12-25T14:58:09.893Z,11.63
2022-12-25T15:00:42.731Z,12.15
2022-12-25T15:03:26.480Z,18.40
2022-12-25T15:06:05.826Z,13.45
2022-12-25T15:08:38.224Z,19.95
2022-12-25T15:11:12.400Z,15.32
2022-12-25T15:13:43.407Z,15.68
2022-12-25T15:16:18.308Z,14.05
2022-12-25T15:18:51.774Z,21.80
2022-12-25T15:21:28.845Z,12.23
2022-12-25T15:24:01.331Z,20.17
2022-12-25T15:26:35.761Z,15.70
2022-12-25T15:29:06.928Z,15.30
2022-12-25T15:31:39.921Z,12.52
2022-12-25T15:34:23.898Z,12.48
2022-12-25T15:36:54.965Z,15.05
2022-12-25T15:39:25.500Z,26.73
2022-12-25T15:42:10.861Z,22.27
2022-12-25T15:44:41.486Z,23.23
2022-12-25T15:47:13.284Z,26.92
2022-12-25T15:49:44.364Z,18.52
2022-12-25T15:52:16.935Z,27.08
2022-12-25T15:54:47.408Z,16.80
2022-12-25T15:57:23.866Z,19.95
2022-12-25T15:59:54.441Z,63.17
2022-12-25T16:02:25.242Z,28.33
2022-12-25T16:04:55.998Z,22.05
2022-12-25T16:07:27.965Z,19.02
2022-12-25T16:09:58.511Z,34.88
2022-12-25T16:12:31.761Z,22.50
2022-12-25T16:15:02.412Z,44.45
2022-12-25T16:17:33.969Z,31.00
2022-12-25T16:20:04.613Z,34.00
2022-12-25T16:22:40.221Z,31.88
2022-12-25T16:25:17.412Z,34.38
2022-12-25T16:27:50.874Z,39.75
2022-12-25T16:30:22.286Z,56.95
2022-12-25T16:32:54.330Z,73.82
2022-12-25T16:35:25.011Z,66.82
2022-12-25T16:37:55.556Z,65.00
2022-12-25T16:40:26.337Z,67.28
2022-12-25T16:43:00.115Z,67.90
2022-12-25T16:45:31.012Z,60.03
2022-12-25T16:48:01.486Z,50.47
2022-12-25T16:50:31.935Z,71.78
2022-12-25T16:53:03.207Z,80.05
2022-12-25T16:55:34.451Z,84.00
2022-12-25T16:58:08.580Z,73.15
2022-12-25T17:00:41.171Z,65.03
2022-12-25T17:03:14.792Z,70.20
2022-12-25T17:05:45.452Z,70.85
2022-12-25T17:08:15.997Z,72.93
2022-12-25T17:10:46.884Z,72.60
2022-12-25T17:13:20.225Z,68.57
2022-12-25T17:15:51.038Z,70.47
2022-12-25T17:18:22.285Z,76.15
2022-12-25T17:20:54.362Z,82.95
2022-12-25T17:23:24.950Z,77.40
2022-12-25T17:25:55.550Z,77.97
2022-12-25T17:28:29.001Z,66.50
2022-12-25T17:31:05.480Z,71.75
2022-12-25T17:33:38.814Z,58.33
2022-12-25T17:36:11.934Z,81.32
2022-12-25T17:38:42.522Z,63.45
2022-12-25T17:41:16.219Z,56.55
2022-12-25T17:43:49.638Z,67.38
2022-12-25T17:46:21.623Z,58.22
2022-12-25T17:48:52.918Z,74.63
2022-12-25T17:51:24.913Z,67.72
2022-12-25T17:53:57.326Z,86.55
2022-12-25T17:56:28.673Z,81.20
2022-12-25T17:59:06.820Z,80.38
2022-12-25T18:01:40.517Z,89.63
2022-12-25T18:04:11.191Z,107.65
2022-12-25T18:06:41.862Z,117.18
2022-12-25T18:09:12.827Z,110.07
2022-12-25T18:11:45.276Z,108.50
2022-12-25T18:14:20.165Z,130.00
2022-12-25T18:16:51.681Z,107.85
2022-12-25T18:19:22.380Z,94.20
2022-12-25T18:21:53.883Z,87.22
2022-12-25T18:24:24.414Z,98.85
2022-12-25T18:26:54.935Z,88.90
2022-12-25T18:29:28.396Z,85.07
2022-12-25T18:31:58.978Z,78.47
2022-12-25T18:34:29.549Z,82.15
2022-12-25T18:37:03.217Z,93.22
2022-12-25T18:39:34.981Z,110.70
2022-12-25T18:42:17.773Z,118.03
2022-12-25T18:44:50.923Z,78.45
2022-12-25T18:47:21.853Z,76.20
2022-12-25T18:49:53.145Z,79.18
2022-12-25T18:52:49.610Z,99.03
2022-12-25T18:55:14.276Z,75.00
2022-12-25T18:57:44.753Z,68.80
2022-12-25T19:00:18.447Z,68.80
2022-12-25T19:02:49.255Z,75.72
2022-12-25T19:05:20.354Z,78.95
2022-12-25T19:07:50.917Z,66.50
2022-12-25T19:10:21.781Z,71.72
2022-12-25T19:12:52.397Z,67.95
2022-12-25T19:15:25.599Z,59.97
2022-12-25T19:17:56.828Z,64.40
2022-12-25T19:20:27.349Z,62.75
2022-12-25T19:22:57.865Z,57.03
2022-12-25T19:25:29.738Z,61.40
2022-12-25T19:28:01.632Z,59.38
2022-12-25T19:30:35.224Z,57.78
2022-12-25T19:33:09.022Z,54.80
2022-12-25T19:35:42.654Z,63.78
2022-12-25T19:38:14.752Z,47.42
2022-12-25T19:41:00.810Z,44.97
2022-12-25T19:43:32.731Z,45.03
2022-12-25T19:46:08.108Z,40.42
2022-12-25T19:51:18.941Z,41.40
2022-12-25T19:53:50.242Z,44.33
2022-12-25T19:56:21.268Z,49.08
2022-12-25T19:58:52.129Z,68.68
2022-12-25T20:01:29.295Z,97.47
2022-12-25T20:04:00.338Z,71.68
2022-12-25T20:06:33.570Z,50.90
2022-12-25T20:09:07.655Z,45.30
2022-12-25T20:11:39.966Z,54.90
2022-12-25T20:14:11.508Z,44.72
2022-12-25T20:16:45.141Z,41.65
2022-12-25T20:19:16.904Z,46.13
2022-12-25T20:21:47.495Z,55.28
2022-12-25T20:24:18.070Z,43.30
2022-12-25T20:26:51.438Z,43.92
2022-12-25T20:29:24.589Z,46.60
2022-12-25T20:31:59.842Z,46.20
2022-12-25T20:34:30.492Z,60.15
2022-12-25T20:37:00.967Z,52.97
2022-12-25T20:39:31.680Z,51.10
2022-12-25T20:42:02.291Z,53.15
2022-12-25T20:44:32.930Z,48.63
2022-12-25T20:47:06.137Z,51.33
2022-12-25T20:49:36.924Z,43.95
2022-12-25T20:52:07.972Z,43.20
2022-12-25T20:54:38.585Z,37.60
2022-12-25T20:57:09.320Z,36.22
2022-12-25T20:59:40.465Z,37.92
2022-12-25T21:02:33.915Z,44.17
2022-12-25T21:05:07.149Z,49.50
2022-12-25T21:07:37.772Z,46.97
2022-12-25T21:10:09.884Z,58.63
2022-12-25T21:12:40.317Z,59.40
2022-12-25T21:15:15.448Z,50.92
2022-12-25T21:17:49.097Z,45.55
2022-12-25T21:20:19.816Z,39.35
2022-12-25T21:22:50.392Z,31.20
2022-12-25T21:25:21.029Z,32.17
2022-12-25T21:27:51.534Z,32.25
2022-12-25T21:30:22.061Z,32.75
2022-12-25T21:33:07.623Z,36.08
2022-12-25T21:35:39.784Z,35.63
2022-12-25T21:38:10.493Z,70.55
2022-12-25T21:40:42.006Z,60.25
2022-12-25T21:43:14.864Z,58.47
2022-12-25T21:45:45.504Z,45.50
2022-12-25T21:48:18.699Z,47.80
2022-12-25T21:51:01.479Z,48.75
2022-12-25T21:53:31.982Z,36.42
2022-12-25T21:56:04.853Z,33.70
2022-12-25T21:58:35.657Z,34.53
2022-12-25T22:01:06.534Z,37.28
2022-12-25T22:03:39.763Z,39.45
2022-12-25T22:06:22.861Z,43.00
2022-12-25T22:08:53.389Z,141.18
2022-12-25T22:11:36.444Z,115.68
2022-12-25T22:14:52.288Z,80.30
2022-12-25T22:17:28.729Z,48.10
2022-12-25T22:20:02.895Z,43.90
2022-12-25T22:22:34.880Z,38.97
2022-12-25T22:25:06.648Z,32.67
2022-12-25T22:27:40.740Z,56.97
2022-12-25T22:30:14.038Z,81.88
2022-12-25T22:32:45.156Z,91.10
2022-12-25T22:35:19.299Z,95.03
2022-12-25T22:37:50.151Z,92.35
2022-12-25T22:40:22.817Z,65.95
2022-12-25T22:42:56.897Z,55.53
2022-12-25T22:45:27.581Z,47.55
2022-12-25T22:47:58.150Z,51.80
2022-12-25T22:50:31.363Z,45.05
2022-12-25T22:53:01.863Z,51.15
2022-12-25T22:55:33.025Z,113.57
2022-12-25T22:58:03.394Z,101.78
2022-12-25T23:00:34.168Z,73.53
2022-12-25T23:03:04.794Z,65.13
2022-12-25T23:05:38.088Z,42.58
2022-12-25T23:08:08.697Z,41.38
2022-12-25T23:10:39.261Z,45.40
2022-12-25T23:13:22.008Z,69.30
2022-12-25T23:15:52.622Z,92.72
2022-12-25T23:18:35.462Z,78.45
2022-12-25T23:21:21.062Z,45.83
2022-12-25T23:24:03.909Z,27.92
2022-12-25T23:26:34.473Z,37.38
2022-12-25T23:29:17.264Z,77.32
2022-12-25T23:31:53.864Z,68.65
2022-12-25T23:34:24.776Z,47.80
2022-12-25T23:36:58.236Z,43.50
2022-12-25T23:39:28.777Z,36.55
2022-12-25T23:41:59.273Z,29.85
2022-12-25T23:44:30.407Z,28.95
2022-12-25T23:47:01.537Z,27.80
2022-12-25T23:49:32.269Z,43.55
2022-12-25T23:52:05.396Z,43.92
2022-12-25T23:54:36.541Z,55.80
2022-12-25T23:57:07.319Z,40.35
2022-12-25T23:59:37.842Z,37.42
